Reklama

Seznam meteostanic a jejich METAR

Vyhledat místa podle abecedy:
A B C D E F G H I J K L M N O P Q R S T U V W X Y Z

Filtrovat:

ID stanice:
a/nebo
Název místa (fulltext):
 
Místo (ID)Naposledy načteno 
Liberec (Liberec) 19.11.2018 00:00 UTC Zobrazit data
Místo: Liberec
Teplota: -1 °C (pocitová: -9.8 °C)
Vítr: 4 m/s z(e) 280°
Počasí: sněží
Dohlednost: 4800 m
Zákl. oblačnosti: 5/8 120 m;6/8 1800 m
Vlhkost: 93%
Luká (Luka) 19.11.2018 00:00 UTC Zobrazit data
Místo: Luká
Teplota: 0 °C (pocitová: -9.2 °C)
Vítr: 5 m/s z(e) 70°
Počasí: sněží
Dohlednost: 14 km
Zákl. oblačnosti: 8/8 660 m
Vlhkost: 64%
Lysá Hora (Lysa Hora) 19.11.2018 00:00 UTC Zobrazit data
Místo: Lysá Hora
Teplota: -5 °C (pocitová: -18.2 °C)
Vítr: 8 m/s z(e) 80°
Počasí: zataženo
Dohlednost: 35 km
Zákl. oblačnosti: 8/8 1080 m
Vlhkost: 28%
L'viv (UKLL) 13.12.2012 15:00 UTC  
La Palma (GCLA) 19.11.2018 00:00 UTC Zobrazit METAR
GCLA 190000Z AUTO 27005KT 240V300 CAVOK 18/10 Q1013
La Paz (SLLP) 18.11.2018 14:00 UTC Zobrazit METAR
SLLP 181400Z 10006KT 9999 FEW015 SCT200 13/04 Q1037
Laayoune (GMML) 19.11.2018 00:00 UTC Zobrazit METAR
GMML 190000Z 22004KT 8000 FEW033 SCT070 16/14 Q1013 NOSIG
Larnaca (LCLK) 19.11.2018 00:00 UTC Zobrazit METAR
LCLK 190000Z 33006KT CAVOK 17/10 Q1017 NOSIG
Leipzig-Halle (EDDP) 18.11.2018 23:50 UTC Zobrazit METAR
EDDP 182350Z 03008KT 4500 BR BKN005 04/03 Q1022 TEMPO 6000
Libreville (FOOL) 18.11.2018 18:00 UTC Zobrazit METAR
FOOL 181800Z 24009KT 200V280 9999 SCT011 SCT016 28/25 Q1009 NOSIG
Liege (EBLG) 18.11.2018 23:50 UTC Zobrazit METAR
EBLG 182350Z 06010KT CAVOK M00/M06 Q1022 NOSIG
Liepaja (EVLA) 18.11.2018 21:50 UTC Zobrazit METAR
EVLA 182150Z AUTO 04006KT 9999 FEW026/// 03/01 Q1032
Lille (LFQQ) 19.11.2018 00:00 UTC Zobrazit METAR
LFQQ 190000Z AUTO 03011KT CAVOK 01/M06 Q1022 NOSIG
Lilongwe (FWLI) 04.06.2013 21:00 UTC Zobrazit METAR
FWLI 042100Z 05003KT CAVOK 14/11 Q1023 NOSIG
Lima - Callao (SPIM) 10.05.2018 14:00 UTC Zobrazit METAR
SPIM 101400Z 21005KT 170V240 5000 BR OVC004 18/17 Q1017 NOSIG RMK PP000
Limnos (LGLM) 18.11.2018 23:50 UTC Zobrazit METAR
LGLM 182350Z 22009KT 9999 SCT008 BKN015 16/14 Q1008
Linz (LOWL) 18.11.2018 23:50 UTC Zobrazit METAR
LOWL 182350Z AUTO 07003KT 1900 -SN FEW001 BKN003 M00/M00 Q1017
Lisbon (LPPT) 19.11.2018 00:00 UTC Zobrazit METAR
LPPT 190000Z 30003KT 9999 FEW038 13/12 Q1001
Liverpool (EGGP) 18.11.2018 23:50 UTC Zobrazit METAR
EGGP 182350Z 05009KT CAVOK 06/03 Q1029
Ljubljana (LJLJ) 19.11.2018 00:00 UTC Zobrazit METAR
LJLJ 190000Z VRB02KT 9999 FEW012 BKN037 OVC047 02/M00 Q1014 NOSIG
Lome (DXXX) 19.11.2018 00:00 UTC Zobrazit METAR
DXXX 190000Z 29004KT 9999 FEW013 28/25 Q1011 NOSIG
London (EGLL) 17.11.2018 08:50 UTC Zobrazit METAR
EGLL 170850Z AUTO 10007KT 5000 HZ BKN012 07/05 Q1027 BECMG FEW012
Luanda (FNLU) 19.11.2018 00:00 UTC Zobrazit METAR
FNLU 190000Z 18004KT 9000 SCT020 BKN070 26/24 Q1012 NOSIG
Lulea (ESPA) 18.11.2018 22:50 UTC Zobrazit METAR
ESPA 182250Z 00000KT CAVOK M05/M06 Q1042
Lusaka (FLLS) 13.01.2014 07:00 UTC Zobrazit METAR
FLLS 130700Z 36009KT CAVOK 25/20 Q1019
Luxembourg Airport (ELLX) 18.11.2018 23:50 UTC Zobrazit METAR
ELLX 182350Z 05014KT CAVOK 00/M12 Q1018 NOSIG
Lyon (LFLL) 19.11.2018 00:00 UTC Zobrazit METAR
LFLL 190000Z VRB02KT 8000 OVC012 04/02 Q1014 NOSIG
Reklama

Počasí na Váš email

Emaily jsou bez reklamy a bez spamu



Odhlásit newsletter

Reklama


Lunární kalendář

  • 23.11.
  • 30.11.
  • 07.12.
  • 15.12.



Reklama


Reklama
Povinné ručení
Reklama



Reklama